createdAt,value
2024-02-16T00:00:32.514Z,5.80
2024-02-16T00:03:02.071Z,7.38
2024-02-16T00:05:30.504Z,6.10
2024-02-16T00:07:59.285Z,8.32
2024-02-16T00:10:27.586Z,8.48
2024-02-16T00:12:56.136Z,8.00
2024-02-16T00:15:25.910Z,7.00
2024-02-16T00:17:54.286Z,5.07
2024-02-16T00:20:25.168Z,8.05
2024-02-16T00:22:54.374Z,8.38
2024-02-16T00:25:22.847Z,7.30
2024-02-16T00:27:52.103Z,6.28
2024-02-16T00:30:20.486Z,7.07
2024-02-16T00:32:50.656Z,8.65
2024-02-16T00:35:20.647Z,7.78
2024-02-16T00:37:49.219Z,7.30
2024-02-16T00:40:17.689Z,6.30
2024-02-16T00:42:46.116Z,8.50
2024-02-16T00:45:14.328Z,8.40
2024-02-16T00:47:42.781Z,7.25
2024-02-16T00:50:14.332Z,8.02
2024-02-16T00:52:42.555Z,7.28
2024-02-16T00:55:11.029Z,8.30
2024-02-16T00:57:39.358Z,8.35
2024-02-16T01:00:10.487Z,7.95
2024-02-16T01:02:39.082Z,7.85
2024-02-16T01:05:11.547Z,8.13
2024-02-16T01:07:43.328Z,10.20
2024-02-16T01:10:14.483Z,8.82
2024-02-16T01:12:42.745Z,13.75
2024-02-16T01:15:12.344Z,10.13
2024-02-16T01:17:41.527Z,9.90
2024-02-16T01:20:13.258Z,7.57
2024-02-16T01:22:43.119Z,10.48
2024-02-16T01:25:11.930Z,9.18
2024-02-16T01:27:42.594Z,8.35
2024-02-16T01:30:11.913Z,7.88
2024-02-16T01:32:40.360Z,10.45
2024-02-16T01:35:09.866Z,9.73
2024-02-16T01:37:38.240Z,10.52
2024-02-16T01:40:10.273Z,10.20
2024-02-16T01:42:38.575Z,11.27
2024-02-16T01:45:07.578Z,12.02
2024-02-16T01:47:36.166Z,8.63
2024-02-16T01:50:05.016Z,10.70
2024-02-16T01:52:35.234Z,15.60
2024-02-16T01:55:04.731Z,9.30
2024-02-16T01:57:35.004Z,12.50
2024-02-16T02:00:04.244Z,12.02
2024-02-16T02:02:33.384Z,10.70
2024-02-16T02:05:02.276Z,10.57
2024-02-16T02:07:30.941Z,9.93
2024-02-16T02:09:59.526Z,11.23
2024-02-16T02:12:28.923Z,9.43
2024-02-16T02:14:58.760Z,9.43
2024-02-16T02:17:27.399Z,8.88
2024-02-16T02:19:56.966Z,10.23
2024-02-16T02:22:28.373Z,8.75
2024-02-16T02:24:57.416Z,8.80
2024-02-16T02:27:25.822Z,9.38
2024-02-16T02:29:54.182Z,12.68
2024-02-16T02:32:22.922Z,11.15
2024-02-16T02:34:51.321Z,7.63
2024-02-16T02:37:19.709Z,11.30
2024-02-16T02:39:49.094Z,9.73
2024-02-16T02:42:17.281Z,12.80
2024-02-16T02:44:51.495Z,10.82
2024-02-16T02:47:20.014Z,11.60
2024-02-16T02:49:48.720Z,9.88
2024-02-16T02:52:18.590Z,10.60
2024-02-16T02:54:48.483Z,9.63
2024-02-16T02:57:16.935Z,9.38
2024-02-16T02:59:46.928Z,9.98
2024-02-16T03:02:15.776Z,11.30
2024-02-16T03:04:44.162Z,10.88
2024-02-16T03:07:12.848Z,10.70
2024-02-16T03:09:43.307Z,13.65
2024-02-16T03:12:13.628Z,12.73
2024-02-16T03:14:41.644Z,11.40
2024-02-16T03:17:10.753Z,18.05
2024-02-16T03:19:39.141Z,10.38
2024-02-16T03:22:07.405Z,13.00
2024-02-16T03:24:35.613Z,14.65
2024-02-16T03:27:03.637Z,10.38
2024-02-16T03:29:33.151Z,11.73
2024-02-16T03:32:01.324Z,13.00
2024-02-16T03:34:30.198Z,11.18
2024-02-16T03:37:00.044Z,11.57
2024-02-16T03:39:28.554Z,12.48
2024-02-16T03:41:57.162Z,12.75
2024-02-16T03:44:25.059Z,11.77
2024-02-16T03:46:56.686Z,10.90
2024-02-16T03:49:25.189Z,11.63
2024-02-16T03:51:53.305Z,12.10
2024-02-16T03:54:21.273Z,12.15
2024-02-16T03:56:49.791Z,11.23
2024-02-16T03:59:17.923Z,10.68
2024-02-16T04:01:47.002Z,10.10
2024-02-16T04:04:16.456Z,12.55
2024-02-16T04:06:44.845Z,12.27
2024-02-16T04:09:13.625Z,11.65
2024-02-16T04:11:42.169Z,15.73
2024-02-16T04:14:11.276Z,12.68
2024-02-16T04:16:39.593Z,12.00
2024-02-16T04:19:08.735Z,16.13
2024-02-16T04:21:38.630Z,10.95
2024-02-16T04:24:07.407Z,10.10
2024-02-16T04:26:36.724Z,11.00
2024-02-16T04:29:06.515Z,15.35
2024-02-16T04:31:35.139Z,11.32
2024-02-16T04:34:03.717Z,13.02
2024-02-16T04:36:32.002Z,11.90
2024-02-16T04:39:01.580Z,10.57
2024-02-16T04:41:29.686Z,11.07
2024-02-16T04:43:58.075Z,13.30
2024-02-16T04:46:26.128Z,14.98
2024-02-16T04:48:54.547Z,10.38
2024-02-16T04:51:22.694Z,11.60
2024-02-16T04:53:50.698Z,18.83
2024-02-16T04:56:20.361Z,11.90
2024-02-16T04:58:49.659Z,9.73
2024-02-16T05:01:18.085Z,12.52
2024-02-16T05:03:46.168Z,9.63
2024-02-16T05:06:14.369Z,12.23
2024-02-16T05:08:42.574Z,13.75
2024-02-16T05:11:11.252Z,13.10
2024-02-16T05:13:43.686Z,11.05
2024-02-16T05:16:12.252Z,14.43
2024-02-16T05:18:40.981Z,12.00
2024-02-16T05:21:10.518Z,16.45
2024-02-16T05:23:38.719Z,11.68
2024-02-16T05:26:06.976Z,10.68
2024-02-16T05:28:35.682Z,13.38
2024-02-16T05:31:16.976Z,14.10
2024-02-16T05:33:46.249Z,14.35
2024-02-16T05:36:14.357Z,13.88
2024-02-16T05:38:44.433Z,10.38
2024-02-16T05:41:12.546Z,11.65
2024-02-16T05:43:41.050Z,10.43
2024-02-16T05:46:15.210Z,9.75
2024-02-16T05:48:44.391Z,9.77
2024-02-16T05:51:14.108Z,10.93
2024-02-16T05:53:42.345Z,10.07
2024-02-16T05:56:11.930Z,10.15
2024-02-16T05:58:40.141Z,9.43
2024-02-16T06:01:09.997Z,8.70
2024-02-16T06:03:39.600Z,13.27
2024-02-16T06:06:09.526Z,10.77
2024-02-16T06:08:37.790Z,11.25
2024-02-16T06:11:09.546Z,14.25
2024-02-16T06:13:37.613Z,9.77
2024-02-16T06:16:09.581Z,10.60
2024-02-16T06:18:39.373Z,13.15
2024-02-16T06:21:07.755Z,10.85
2024-02-16T06:23:37.284Z,11.25
2024-02-16T06:26:09.096Z,12.73
2024-02-16T06:28:37.395Z,9.93
2024-02-16T06:31:06.540Z,13.05
2024-02-16T06:33:35.448Z,14.77
2024-02-16T06:36:06.230Z,10.93
2024-02-16T06:38:34.523Z,12.48
2024-02-16T06:41:04.747Z,12.25
2024-02-16T06:43:33.751Z,10.10
2024-02-16T06:46:03.012Z,10.75
2024-02-16T06:48:31.617Z,11.55
2024-02-16T06:51:00.464Z,11.93
2024-02-16T06:53:30.070Z,12.30
2024-02-16T06:55:58.359Z,15.77
2024-02-16T06:58:26.485Z,12.25
2024-02-16T07:00:55.012Z,14.93
2024-02-16T07:03:25.721Z,11.98
2024-02-16T07:05:57.226Z,15.25
2024-02-16T07:08:27.533Z,11.10
2024-02-16T07:10:57.578Z,11.77
2024-02-16T07:13:26.075Z,9.35
2024-02-16T07:15:54.452Z,14.73
2024-02-16T07:18:22.739Z,10.13
2024-02-16T07:20:51.639Z,11.65
2024-02-16T07:23:19.493Z,12.45
2024-02-16T07:25:47.558Z,11.32
2024-02-16T07:28:16.746Z,10.45
2024-02-16T07:30:44.597Z,12.32
2024-02-16T07:33:12.584Z,14.77
2024-02-16T07:35:40.412Z,11.55
2024-02-16T07:38:08.315Z,11.60
2024-02-16T07:40:36.084Z,11.00
2024-02-16T07:43:05.858Z,11.40
2024-02-16T07:45:35.425Z,12.50
2024-02-16T07:48:06.491Z,13.93
2024-02-16T07:50:34.569Z,13.85
2024-02-16T07:53:02.241Z,10.60
2024-02-16T07:55:30.039Z,14.32
2024-02-16T07:57:58.092Z,9.60
2024-02-16T08:00:26.050Z,13.93
2024-02-16T08:02:55.636Z,13.15
2024-02-16T08:05:24.482Z,15.85
2024-02-16T08:07:52.291Z,13.82
2024-02-16T08:10:22.390Z,13.98
2024-02-16T08:12:50.649Z,13.68
2024-02-16T08:15:24.108Z,13.85
2024-02-16T08:17:52.710Z,12.45
2024-02-16T08:20:22.753Z,24.30
2024-02-16T08:22:50.712Z,11.10
2024-02-16T08:25:18.576Z,11.85
2024-02-16T08:27:46.517Z,10.32
2024-02-16T08:30:15.012Z,15.38
2024-02-16T08:32:43.148Z,13.30
2024-02-16T08:35:11.971Z,14.82
2024-02-16T08:37:41.140Z,11.52
2024-02-16T08:40:15.162Z,10.82
2024-02-16T08:42:43.200Z,12.20
2024-02-16T08:45:11.540Z,11.30
2024-02-16T08:47:40.236Z,12.73
2024-02-16T08:50:08.481Z,10.10
2024-02-16T08:52:36.215Z,12.32
2024-02-16T08:55:05.641Z,14.20
2024-02-16T08:57:35.103Z,13.15
2024-02-16T09:00:03.651Z,17.20
2024-02-16T09:02:31.514Z,13.00
2024-02-16T09:04:59.305Z,14.90
2024-02-16T09:07:28.084Z,11.32
2024-02-16T09:09:57.473Z,14.75
2024-02-16T09:12:26.665Z,11.35
2024-02-16T09:14:54.395Z,12.63
2024-02-16T09:17:22.545Z,11.77
2024-02-16T09:19:50.431Z,16.25
2024-02-16T09:22:18.464Z,11.98
2024-02-16T09:24:48.234Z,12.13
2024-02-16T09:27:16.567Z,10.70
2024-02-16T09:29:45.832Z,12.25
2024-02-16T09:32:13.641Z,10.77
2024-02-16T09:34:43.542Z,10.40
2024-02-16T09:37:12.931Z,15.20
2024-02-16T09:39:42.268Z,11.23
2024-02-16T09:42:11.067Z,11.82
2024-02-16T09:44:39.266Z,10.43
2024-02-16T09:47:11.719Z,11.10
2024-02-16T09:49:40.958Z,11.73
2024-02-16T09:52:13.159Z,10.65
2024-02-16T09:54:41.428Z,9.45
2024-02-16T09:57:09.671Z,9.55
2024-02-16T09:59:37.488Z,11.52
2024-02-16T10:02:08.341Z,11.20
2024-02-16T10:04:37.848Z,10.07
2024-02-16T10:07:10.483Z,9.00
2024-02-16T10:09:42.548Z,10.50
2024-02-16T10:12:11.636Z,10.68
2024-02-16T10:14:42.415Z,14.90
2024-02-16T10:17:11.140Z,12.65
2024-02-16T10:19:42.947Z,11.32
2024-02-16T10:22:12.806Z,12.70
2024-02-16T10:24:42.189Z,8.18
2024-02-16T10:27:17.045Z,9.05
2024-02-16T10:29:46.586Z,11.57
2024-02-16T10:32:15.222Z,9.40
2024-02-16T10:34:47.859Z,9.85
2024-02-16T10:37:15.832Z,14.07
2024-02-16T10:39:45.089Z,9.50
2024-02-16T10:42:14.808Z,12.98
2024-02-16T10:44:44.128Z,14.68
2024-02-16T10:47:12.690Z,7.85
2024-02-16T10:49:40.829Z,10.25
2024-02-16T10:52:10.787Z,9.23
2024-02-16T10:54:40.801Z,6.75
2024-02-16T10:57:10.761Z,8.68
2024-02-16T10:59:45.485Z,9.30
2024-02-16T11:02:13.971Z,8.32
2024-02-16T11:04:42.524Z,7.90
2024-02-16T11:07:18.712Z,6.88
2024-02-16T11:09:49.013Z,11.65
2024-02-16T11:12:17.840Z,7.97
2024-02-16T11:14:47.095Z,8.60
2024-02-16T11:17:15.780Z,11.05
2024-02-16T11:19:44.750Z,8.48
2024-02-16T11:22:18.263Z,11.10
2024-02-16T11:24:47.734Z,9.90
2024-02-16T11:27:20.064Z,8.60
2024-02-16T11:29:48.929Z,10.98
2024-02-16T11:32:17.091Z,10.38
2024-02-16T11:34:45.301Z,8.32
2024-02-16T11:37:15.249Z,8.57
2024-02-16T11:39:46.346Z,12.20
2024-02-16T11:42:16.343Z,5.47
2024-02-16T11:44:54.248Z,6.68
2024-02-16T11:47:26.905Z,9.23
2024-02-16T11:50:03.748Z,7.68
2024-02-16T11:52:33.846Z,6.43
2024-02-16T11:55:04.743Z,10.55
2024-02-16T11:57:33.280Z,7.55
2024-02-16T12:00:05.127Z,5.38
2024-02-16T12:02:34.024Z,4.57
2024-02-16T12:05:04.004Z,4.40
2024-02-16T12:07:35.670Z,6.05
2024-02-16T12:10:06.731Z,8.02
2024-02-16T12:12:36.012Z,8.05
2024-02-16T12:15:04.781Z,6.90
2024-02-16T12:17:32.774Z,5.97
2024-02-16T12:20:00.954Z,7.38
2024-02-16T12:22:28.882Z,8.95
2024-02-16T12:25:00.335Z,8.25
2024-02-16T12:27:29.482Z,17.63
2024-02-16T12:29:57.297Z,6.60
2024-02-16T12:32:25.088Z,4.38
2024-02-16T12:34:53.275Z,9.88
2024-02-16T12:37:21.158Z,5.45
2024-02-16T12:39:49.502Z,6.03
2024-02-16T12:42:18.745Z,6.53
2024-02-16T12:44:47.046Z,3.38
2024-02-16T12:47:16.353Z,6.22
2024-02-16T12:49:44.299Z,3.97
2024-02-16T12:52:12.913Z,9.88
2024-02-16T12:54:40.888Z,5.90
2024-02-16T12:57:14.676Z,9.70
2024-02-16T12:59:43.857Z,5.10
2024-02-16T13:02:11.940Z,8.48
2024-02-16T13:04:41.386Z,5.95
2024-02-16T13:07:09.273Z,4.68
2024-02-16T13:09:37.297Z,5.50
2024-02-16T13:12:05.725Z,6.70
2024-02-16T13:14:33.566Z,6.65
2024-02-16T13:17:02.639Z,7.95
2024-02-16T13:19:30.599Z,5.88
2024-02-16T13:21:58.412Z,7.85
2024-02-16T13:24:26.255Z,3.78
2024-02-16T13:26:54.535Z,4.75
2024-02-16T13:29:22.502Z,8.48
2024-02-16T13:31:50.368Z,5.03
2024-02-16T13:34:19.948Z,5.53
2024-02-16T13:36:47.984Z,7.00
2024-02-16T13:39:17.181Z,6.30
2024-02-16T13:41:47.523Z,4.07
2024-02-16T13:44:15.677Z,5.25
2024-02-16T13:46:43.724Z,7.43
2024-02-16T13:49:11.848Z,5.63
2024-02-16T13:51:41.004Z,5.05
2024-02-16T13:54:09.276Z,6.82
2024-02-16T13:56:39.749Z,2.75
2024-02-16T13:59:08.274Z,5.45
2024-02-16T14:01:36.983Z,4.85
2024-02-16T14:04:05.491Z,8.57
2024-02-16T14:06:33.407Z,7.80
2024-02-16T14:09:02.866Z,3.75
2024-02-16T14:11:30.630Z,4.65
2024-02-16T14:13:58.727Z,5.13
2024-02-16T14:16:26.435Z,5.45
2024-02-16T14:18:54.710Z,3.55
2024-02-16T14:21:25.461Z,7.25
2024-02-16T14:23:54.069Z,9.38
2024-02-16T14:26:23.419Z,4.47
2024-02-16T14:28:51.343Z,5.85
2024-02-16T14:31:21.299Z,4.30
2024-02-16T14:33:49.915Z,6.35
2024-02-16T14:36:17.963Z,7.57
2024-02-16T14:38:45.687Z,6.47
2024-02-16T14:41:13.616Z,4.22
2024-02-16T14:43:42.871Z,8.73
2024-02-16T14:46:11.692Z,7.45
2024-02-16T14:48:40.345Z,5.22
2024-02-16T14:51:08.312Z,5.28
2024-02-16T14:53:36.118Z,5.57
2024-02-16T14:56:04.686Z,4.85
2024-02-16T14:58:32.557Z,8.65
2024-02-16T15:01:02.550Z,5.38
2024-02-16T15:03:31.976Z,8.38
2024-02-16T15:06:00.110Z,6.95
2024-02-16T15:08:28.762Z,8.52
2024-02-16T15:10:56.683Z,6.15
2024-02-16T15:13:25.714Z,7.15
2024-02-16T15:15:54.269Z,5.38
2024-02-16T15:18:23.639Z,6.80
2024-02-16T15:20:54.881Z,5.15
2024-02-16T15:23:23.522Z,6.78
2024-02-16T15:25:51.332Z,7.95
2024-02-16T15:28:19.038Z,9.15
2024-02-16T15:30:46.987Z,8.07
2024-02-16T15:33:14.996Z,6.13
2024-02-16T15:35:44.514Z,5.30
2024-02-16T15:38:12.263Z,5.88
2024-02-16T15:40:39.965Z,7.53
2024-02-16T15:43:09.414Z,5.03
2024-02-16T15:45:41.525Z,8.23
2024-02-16T15:48:10.811Z,9.25
2024-02-16T15:50:38.803Z,8.00
2024-02-16T15:53:08.050Z,10.55
2024-02-16T15:55:36.399Z,9.18
2024-02-16T15:58:04.303Z,11.07
2024-02-16T16:00:32.247Z,5.80
2024-02-16T16:03:01.936Z,9.25
2024-02-16T16:05:31.180Z,9.90
2024-02-16T16:07:59.850Z,6.45
2024-02-16T16:10:29.097Z,6.80
2024-02-16T16:12:57.383Z,6.80
2024-02-16T16:15:25.185Z,7.07
2024-02-16T16:17:52.952Z,10.40
2024-02-16T16:20:20.851Z,6.88
2024-02-16T16:22:48.809Z,7.22
2024-02-16T16:25:17.097Z,7.78
2024-02-16T16:27:48.913Z,8.35
2024-02-16T16:30:17.585Z,9.65
2024-02-16T16:32:45.370Z,11.95
2024-02-16T16:35:13.642Z,8.77
2024-02-16T16:37:41.533Z,7.80
2024-02-16T16:40:10.901Z,7.55
2024-02-16T16:42:39.033Z,9.73
2024-02-16T16:45:09.143Z,5.82
2024-02-16T16:47:37.567Z,9.90
2024-02-16T16:50:08.811Z,6.55
2024-02-16T16:52:36.872Z,10.48
2024-02-16T16:55:06.500Z,9.98
2024-02-16T16:57:34.732Z,10.02
2024-02-16T17:00:03.256Z,6.28
2024-02-16T17:02:32.586Z,9.77
2024-02-16T17:05:00.406Z,7.55
2024-02-16T17:07:28.315Z,10.20
2024-02-16T17:09:58.387Z,13.25
2024-02-16T17:12:27.345Z,10.70
2024-02-16T17:14:55.727Z,9.10
2024-02-16T17:17:24.136Z,11.43
2024-02-16T17:19:53.454Z,10.00
2024-02-16T17:22:21.201Z,8.00
2024-02-16T17:24:49.126Z,9.73
2024-02-16T17:27:17.672Z,10.27
2024-02-16T17:29:46.579Z,10.70
2024-02-16T17:32:14.298Z,14.80
2024-02-16T17:34:42.170Z,11.60
2024-02-16T17:37:12.184Z,7.88
2024-02-16T17:39:42.881Z,9.38
2024-02-16T17:42:11.846Z,9.82
2024-02-16T17:44:39.728Z,10.02
2024-02-16T17:47:07.882Z,11.50
2024-02-16T17:49:35.731Z,9.88
2024-02-16T17:52:03.574Z,9.60
2024-02-16T17:54:33.012Z,9.50
2024-02-16T17:57:02.240Z,11.07
2024-02-16T17:59:29.994Z,9.30
2024-02-16T18:01:57.766Z,8.98
2024-02-16T18:04:25.769Z,10.15
2024-02-16T18:06:53.597Z,9.05
2024-02-16T18:09:22.213Z,10.30
2024-02-16T18:11:51.477Z,11.18
2024-02-16T18:14:19.361Z,8.55
2024-02-16T18:16:47.075Z,10.55
2024-02-16T18:19:14.983Z,8.10
2024-02-16T18:21:42.927Z,7.40
2024-02-16T18:24:11.168Z,10.32
2024-02-16T18:26:39.047Z,12.13
2024-02-16T18:29:09.236Z,10.18
2024-02-16T18:31:38.516Z,7.68
2024-02-16T18:34:06.532Z,10.13
2024-02-16T18:36:34.347Z,11.18
2024-02-16T18:39:03.150Z,15.70
2024-02-16T18:41:30.968Z,9.93
2024-02-16T18:43:58.745Z,11.38
2024-02-16T18:46:27.927Z,8.18
2024-02-16T18:48:55.881Z,16.05
2024-02-16T18:51:23.735Z,10.35
2024-02-16T18:53:51.475Z,11.10
2024-02-16T18:56:20.018Z,12.38
2024-02-16T18:58:47.816Z,7.20
2024-02-16T19:01:19.450Z,10.95
2024-02-16T19:03:49.512Z,9.13
2024-02-16T19:06:17.893Z,12.20
2024-02-16T19:08:45.898Z,10.90
2024-02-16T19:11:13.568Z,10.68
2024-02-16T19:13:41.347Z,13.18
2024-02-16T19:16:09.500Z,12.95
2024-02-16T19:18:38.329Z,13.68
2024-02-16T19:21:08.951Z,11.80
2024-02-16T19:23:37.315Z,14.85
2024-02-16T19:26:06.771Z,11.10
2024-02-16T19:28:39.099Z,11.40
2024-02-16T19:31:07.810Z,12.82
2024-02-16T19:33:36.558Z,9.20
2024-02-16T19:36:05.403Z,9.40
2024-02-16T19:38:36.813Z,10.73
2024-02-16T19:41:05.405Z,8.60
2024-02-16T19:43:36.404Z,9.95
2024-02-16T19:46:04.736Z,9.00
2024-02-16T19:48:32.907Z,7.60
2024-02-16T19:51:01.363Z,8.43
2024-02-16T19:53:29.453Z,10.20
2024-02-16T19:55:58.635Z,9.50
2024-02-16T19:58:27.379Z,8.70
2024-02-16T20:00:55.792Z,9.85
2024-02-16T20:03:24.771Z,10.85
2024-02-16T20:05:54.016Z,8.27
2024-02-16T20:08:22.495Z,10.73
2024-02-16T20:10:52.343Z,11.43
2024-02-16T20:13:21.877Z,10.60
2024-02-16T20:15:50.283Z,10.10
2024-02-16T20:18:20.845Z,11.82
2024-02-16T20:20:48.845Z,11.35
2024-02-16T20:23:18.603Z,10.52
2024-02-16T20:25:47.085Z,9.05
2024-02-16T20:28:15.044Z,9.00
2024-02-16T20:30:44.624Z,10.00
2024-02-16T20:33:13.296Z,7.88
2024-02-16T20:35:42.104Z,10.63
2024-02-16T20:38:09.837Z,8.68
2024-02-16T20:40:37.650Z,7.50
2024-02-16T20:43:05.848Z,8.65
2024-02-16T20:45:34.742Z,9.20
2024-02-16T20:48:06.671Z,12.13
2024-02-16T20:50:35.359Z,9.50
2024-02-16T20:53:03.525Z,9.75
2024-02-16T20:55:31.469Z,9.48
2024-02-16T20:58:00.642Z,10.35
2024-02-16T21:00:28.725Z,6.93
2024-02-16T21:02:56.694Z,7.90
2024-02-16T21:05:25.901Z,6.55
2024-02-16T21:07:55.832Z,9.02
2024-02-16T21:10:24.171Z,8.45
2024-02-16T21:12:52.387Z,6.78
2024-02-16T21:15:20.859Z,8.30
2024-02-16T21:17:48.971Z,10.35
2024-02-16T21:20:17.040Z,7.10
2024-02-16T21:22:46.327Z,5.53
2024-02-16T21:25:14.147Z,5.20
2024-02-16T21:27:42.009Z,5.30
2024-02-16T21:30:10.827Z,7.28
2024-02-16T21:32:38.656Z,8.93
2024-02-16T21:35:07.162Z,9.27
2024-02-16T21:37:36.501Z,8.35
2024-02-16T21:40:06.827Z,8.82
2024-02-16T21:42:34.753Z,6.68
2024-02-16T21:45:02.704Z,6.38
2024-02-16T21:47:30.790Z,6.38
2024-02-16T21:49:58.745Z,8.30
2024-02-16T21:52:26.666Z,6.25
2024-02-16T21:54:54.485Z,5.15
2024-02-16T21:57:25.470Z,4.28
2024-02-16T21:59:53.223Z,4.40
2024-02-16T22:02:21.041Z,4.40
2024-02-16T22:04:48.874Z,4.78
2024-02-16T22:07:17.142Z,4.88
2024-02-16T22:09:45.232Z,5.35
2024-02-16T22:12:13.113Z,5.65
2024-02-16T22:14:42.801Z,7.43
2024-02-16T22:17:11.533Z,4.68
2024-02-16T22:19:39.468Z,5.70
2024-02-16T22:22:07.299Z,4.28
2024-02-16T22:24:35.045Z,3.63
2024-02-16T22:27:03.791Z,3.08
2024-02-16T22:29:31.508Z,3.42
2024-02-16T22:32:11.432Z,4.28
2024-02-16T22:34:44.781Z,5.10
2024-02-16T22:37:12.662Z,4.82
2024-02-16T22:39:40.902Z,4.45
2024-02-16T22:42:08.736Z,4.57
2024-02-16T22:44:36.614Z,5.32
2024-02-16T22:47:06.281Z,5.90
2024-02-16T22:49:34.584Z,7.63
2024-02-16T22:52:02.429Z,6.45
2024-02-16T22:54:30.272Z,8.35
2024-02-16T22:56:58.220Z,7.45
2024-02-16T22:59:25.881Z,8.90
2024-02-16T23:01:53.600Z,7.80
2024-02-16T23:04:22.752Z,9.32
2024-02-16T23:06:50.953Z,10.18
2024-02-16T23:09:18.954Z,10.15
2024-02-16T23:11:47.850Z,10.05
2024-02-16T23:14:19.235Z,9.07
2024-02-16T23:16:48.508Z,10.45
2024-02-16T23:19:16.977Z,10.65
2024-02-16T23:21:47.481Z,10.98
2024-02-16T23:24:15.313Z,10.98
2024-02-16T23:26:43.521Z,16.83
2024-02-16T23:29:12.250Z,13.55
2024-02-16T23:31:40.014Z,13.50
2024-02-16T23:34:08.306Z,15.30
2024-02-16T23:36:36.221Z,13.63
2024-02-16T23:39:05.439Z,13.02
2024-02-16T23:41:33.216Z,14.55
2024-02-16T23:44:02.071Z,15.27
2024-02-16T23:46:30.265Z,14.35
2024-02-16T23:48:58.137Z,14.65
2024-02-16T23:51:25.993Z,15.27
2024-02-16T23:53:53.822Z,14.45
2024-02-16T23:56:22.924Z,15.27
2024-02-16T23:58:50.662Z,16.00
